Airfield :
LOGIN :

Register | Disclaimer

   EN    FR    IT 

 










Legend :    VFR   Marginal VFR   IFR   Intensive IFR   Very Intensive IFR
Visi :
Ceiling :
>= 8 km
>= 3000ft
5 to 8 km
1000 to 3000 ft
1500m to 5 km
500 to 1000 ft
800 to 1500m
200 to 500 ft
< 800m
< 200 ft
Symbols :   Thunderstorms  Fog  Heavy snow  Heavy precipitations  Wind > 20 kt
SIGMETs :     Misc.  Thunderstorms  Icing  Turbulence  Mountain Waves  Volcanic Ashes






- Airport Elevation : 46 ft
- IATA code : SNN


EINN - Shannon

CURRENT METAR :
  • 020800Z 26011KT 9999 FEW010 SCT050 09/06 Q1021 NOSIG

EXPIRED METARs :
  • 020730Z 26010KT 9999 FEW010 BKN050 08/06 Q1021 NOSIG
  • 020700Z 26009KT 9999 FEW010 SCT050 08/06 Q1021 NOSIG
  • 020630Z 27011KT 9999 FEW010 07/06 Q1021 NOSIG
  • 020600Z 27012KT 9999 FEW010 07/05 Q1021 NOSIG
  • 020530Z 28008KT 9999 FEW013 SCT080 07/05 Q1022 NOSIG

TAF TAF EINN
Valid from the 02 at 06:00 until the 03 at 06:00 UTC


020500Z 0206/0306 28008KT 9999 SCT012 BKN025
PROB40
TEMPO 0206/0216 BKN012
BECMG 0210/0212 29015G25KT
BECMG 0216/0218 30012KT
TEMPO 0216/0220 -RA BKN012
BECMG 0219/0221 30006KT



MET'MAP, your aeronautical weather chart ! - Copyright ORBIFLY December 2007 - Disclaimer

ORBIFLY MET'MAP TEAM :

Programming & Development : Alexandra Zaïnal
Concept & original design : Baudouin d'Aumeries
Assistance for programming : Marc-Olivier Méhu
Technical & hardware support : Manuel Goepfert

Contact : metmap@orbifly.com




SOURCES & CREDITS :

   NOAA